Time;durP1;ratioP1;P1;durP2;ratioP2;P2;SDS_P1;SDS_P2;PMS_P1;PMS_P2;Temp;Humidity;BMP_temperature;BMP_pressure;BME280_temperature;BME280_humidity;BME280_pressure;Samples;Min_cycle;Max_cycle;Signal;HPM_P1;HPM_P2
2022/08/11 12:46:11;;;;;;;1.32;1.10;;;;;;;23.21;100.00;99949.68;1768350;79;21660;-51
2022/08/11 12:52:00;;;;;;;1.17;1.07;;;;;;;23.04;100.00;99952.69;1771640;79;21222;-51
2022/08/11 12:54:44;;;;;;;1.05;1.00;;;;;;;22.97;100.00;99947.41;1689481;81;20914;-51
2022/08/11 13:05:52;;;;;;;5.35;1.00;;;;;;;22.93;100.00;99957.84;1706473;81;21363;-50
2022/08/11 13:08:19;;;;;;;1.15;1.07;;;;;;;22.98;100.00;99955.50;1714264;82;20883;-51
2022/08/11 13:13:30;;;;;;;1.42;1.32;;;;;;;23.10;100.00;99960.83;1715802;82;21213;-50
2022/08/11 13:15:56;;;;;;;3.08;1.20;;;;;;;23.07;100.00;99958.38;1719675;82;21501;-50
2022/08/11 13:18:23;;;;;;;1.40;1.30;;;;;;;23.04;100.00;99958.19;1716419;82;21556;-51
2022/08/11 13:20:52;;;;;;;4.12;1.30;;;;;;;22.99;100.00;99961.86;1709353;82;21089;-51
2022/08/11 13:23:19;;;;;;;1.67;1.32;;;;;;;22.96;100.00;99963.05;1682011;81;866298;-51
2022/08/11 13:25:46;;;;;;;2.10;1.40;;;;;;;22.92;100.00;99967.59;1738016;81;20977;-51
2022/08/11 13:28:12;;;;;;;2.60;1.50;;;;;;;22.83;100.00;99957.48;1662283;83;984744;-51
2022/08/11 13:33:24;;;;;;;1.40;1.30;;;;;;;22.67;100.00;99963.55;1718072;82;21072;-50
2022/08/11 13:35:52;;;;;;;4.50;1.25;;;;;;;22.64;100.00;99962.45;1579256;81;975308;-51
2022/08/11 13:38:21;;;;;;;1.85;1.27;;;;;;;22.65;100.00;99959.57;1716826;81;21045;-51
2022/08/11 13:40:48;;;;;;;1.15;1.05;;;;;;;22.64;100.00;99967.94;1700748;82;21092;-51
2022/08/11 13:43:15;;;;;;;1.93;1.40;;;;;;;22.64;100.00;99963.83;1621471;82;975441;-51
2022/08/11 13:45:43;;;;;;;3.85;1.50;;;;;;;22.67;100.00;99955.31;1698596;83;21512;-51
2022/08/11 13:48:10;;;;;;;2.62;1.15;;;;;;;22.69;100.00;99961.53;1695398;83;21046;-51
2022/08/11 13:53:23;;;;;;;5.03;1.85;;;;;;;22.77;100.00;99956.71;1697145;82;21247;-50
2022/08/11 13:55:49;;;;;;;1.90;1.55;;;;;;;22.82;100.00;99954.38;1702017;82;21104;-51
2022/08/11 13:58:16;;;;;;;2.67;1.72;;;;;;;22.85;100.00;99956.34;1701217;83;22641;-50
2022/08/11 14:00:45;;;;;;;2.42;1.50;;;;;;;22.90;100.00;99955.37;1699366;83;21644;-51
2022/08/11 14:03:11;;;;;;;2.70;1.95;;;;;;;22.93;100.00;99952.86;1758582;79;21121;-51
2022/08/11 14:05:42;;;;;;;4.25;1.57;;;;;;;22.96;100.00;99950.69;1757387;79;22418;-51
2022/08/11 14:08:12;;;;;;;2.08;1.52;;;;;;;23.00;100.00;99956.73;1756308;79;21565;-51
2022/08/11 14:10:38;;;;;;;5.55;1.57;;;;;;;23.05;100.00;99953.05;1752036;80;21046;-51
2022/08/11 14:16:03;;;;;;;3.37;1.90;;;;;;;23.13;100.00;99951.80;1756062;79;21650;-51
2022/08/11 14:18:31;;;;;;;1.72;1.62;;;;;;;23.18;100.00;99944.48;1722877;81;22456;-52
2022/08/11 14:23:53;;;;;;;2.80;1.52;;;;;;;23.25;100.00;99947.84;1759421;79;21133;-51
2022/08/11 14:26:25;;;;;;;1.70;1.60;;;;;;;23.27;100.00;99949.94;1758513;79;21034;-50
2022/08/11 14:29:07;;;;;;;4.42;2.27;;;;;;;23.30;100.00;99943.30;1756991;79;21058;-51
2022/08/11 14:31:36;;;;;;;7.92;1.70;;;;;;;23.32;100.00;99940.73;1758579;79;21844;-51
2022/08/11 14:34:09;;;;;;;2.22;1.90;;;;;;;23.36;100.00;99946.80;1756821;79;21023;-50
2022/08/11 14:36:42;;;;;;;2.27;1.47;;;;;;;23.38;100.00;99940.15;1751305;79;21137;-50
2022/08/11 14:53:10;;;;;;;2.37;1.73;;;;;;;23.40;100.00;99939.97;1754826;80;21132;-50
2022/08/11 14:58:28;;;;;;;3.58;3.08;;;;;;;23.30;100.00;99927.67;1759701;79;22223;-51
2022/08/11 15:00:57;;;;;;;3.77;3.22;;;;;;;23.29;100.00;99932.81;1758000;79;21046;-50
2022/08/11 15:03:25;;;;;;;2.70;2.60;;;;;;;23.32;100.00;99929.74;1757029;79;20982;-51
2022/08/11 15:06:01;;;;;;;4.37;2.77;;;;;;;23.36;100.00;99927.06;1757247;79;21030;-51
2022/08/11 15:08:54;;;;;;;4.72;3.00;;;;;;;23.39;100.00;99930.86;1757387;79;21014;-51
2022/08/11 15:14:10;;;;;;;3.85;3.55;;;;;;;23.49;100.00;99917.63;1638031;80;975150;-51
2022/08/11 15:19:25;;;;;;;4.30;2.95;;;;;;;23.51;100.00;99925.22;1756290;79;21239;-51
2022/08/11 15:24:36;;;;;;;2.83;2.62;;;;;;;23.60;100.00;99942.16;1755764;79;21034;-51
2022/08/11 15:38:11;;;;;;;3.90;2.95;;;;;;;23.56;100.00;99941.59;1756135;79;21116;-52
2022/08/11 15:46:33;;;;;;;2.70;2.50;;;;;;;23.50;100.00;99944.09;1741021;80;21974;-51
2022/08/11 15:49:02;;;;;;;2.45;2.35;;;;;;;23.49;100.00;99945.09;1759752;80;20927;-51
2022/08/11 15:51:39;;;;;;;2.95;2.75;;;;;;;23.46;100.00;99935.77;1757860;79;21411;-51
2022/08/11 15:54:11;;;;;;;3.00;2.55;;;;;;;23.45;100.00;99943.66;1766349;79;21002;-51
2022/08/11 15:56:41;;;;;;;3.00;2.80;;;;;;;23.44;100.00;99941.92;1760897;79;21351;-51
2022/08/11 16:04:39;;;;;;;4.87;2.58;;;;;;;23.44;100.00;99945.53;1762671;79;21010;-51
2022/08/11 16:07:10;;;;;;;3.33;3.15;;;;;;;23.42;100.00;99946.69;1729055;80;21063;-51
2022/08/11 16:09:50;;;;;;;2.58;2.47;;;;;;;23.39;100.00;99942.39;1758340;79;21068;-51
2022/08/11 16:12:21;;;;;;;2.72;2.62;;;;;;;23.37;100.00;99942.53;1703038;82;21762;-51
2022/08/11 16:17:43;;;;;;;5.42;2.27;;;;;;;23.36;100.00;99939.94;1761502;79;21093;-51
2022/08/11 16:20:14;;;;;;;2.45;2.35;;;;;;;23.34;100.00;99943.33;1762297;79;21101;-51
2022/08/11 16:22:45;;;;;;;3.42;3.20;;;;;;;23.32;100.00;99937.98;1761235;79;21086;-51
2022/08/11 16:25:16;;;;;;;4.50;3.20;;;;;;;23.30;100.00;99935.92;1760047;80;23317;-51
2022/08/11 16:27:48;;;;;;;2.87;2.67;;;;;;;23.28;100.00;99937.08;1756676;79;21267;-51
2022/08/11 16:30:14;;;;;;;2.72;2.58;;;;;;;23.26;100.00;99933.09;1757299;79;21069;-51
2022/08/11 16:32:44;;;;;;;3.05;2.85;;;;;;;23.26;100.00;99939.97;1733848;79;21052;-50
2022/08/11 16:40:48;;;;;;;8.58;3.08;;;;;;;23.25;100.00;99938.23;1763787;79;21041;-51
2022/08/11 16:48:42;;;;;;;3.00;2.77;;;;;;;23.23;100.00;99934.77;1753726;79;21065;-51
2022/08/11 16:51:11;;;;;;;4.37;2.75;;;;;;;23.20;100.00;99937.83;1753634;80;21986;-49
2022/08/11 16:53:38;;;;;;;4.45;3.05;;;;;;;23.16;100.00;99949.24;1759010;80;21081;-49
